Station Historical Data
Daily Summary for April 14, 2017 Units:  Both    English   Metric
« Previous Day
Next Day »
Daily Weekly Monthly Yearly Custom
  High: Low: Average:
Temperature: 65.6 °F /  18.7 °C 35.5 °F /  1.9 °C 51.6 °F /  10.9 °C
Dew Point: 34.1 °F /  1.2 °C 26.4 °F /  -3.1 °C 30.1 °F /  -1.1 °C
Humidity: 79% 24% 48%
Wind Speed: 13.0mph /  20.9km/h - 3mph /  4.8km/h
Wind Gust: 15.0mph /  24.1km/h - -
Wind- - ENE
Pressure: 30.43 in /  1030.4 hPa 30.28 in /  1025.3 hPa -
Precipitation: 0.00 in /  0 mm    
Historical Graphs
 
 
Tabular Data for April 14, 2017
Time Temperature Dew Point Pressure Wind Wind Speed Wind Gust Humidity Rainfall Rate (Hourly)
00:04 40.4 °F /  4.7 °C 29.2 °F /  -1.6 °C 30.42in /  1030hPa Calm     64% 0.00in /  0mm
00:09 40.9 °F /  4.9 °C 29.3 °F /  -1.5 °C 30.42in /  1030hPa Calm     63% 0.00in /  0mm
00:14 41.1 °F /  5.1 °C 29.5 °F /  -1.4 °C 30.42in /  1030hPa Calm     63% 0.00in /  0mm
00:19 41.5 °F /  5.3 °C 29.4 °F /  -1.4 °C 30.42in /  1030hPa Calm     62% 0.00in /  0mm
00:24 42.0 °F /  5.6 °C 29.1 °F /  -1.6 °C 30.42in /  1030hPa Calm     60% 0.00in /  0mm
00:29 42.0 °F /  5.6 °C 29.5 °F /  -1.4 °C 30.42in /  1030hPa Calm     61% 0.00in /  0mm
00:34 42.1 °F /  5.6 °C 29.6 °F /  -1.3 °C 30.42in /  1030hPa Calm     61% 0.00in /  0mm
00:39 42.2 °F /  5.7 °C 30.1 °F /  -1.1 °C 30.42in /  1030hPa Calm     62% 0.00in /  0mm
00:44 42.2 °F /  5.7 °C 29.7 °F /  -1.3 °C 30.42in /  1030hPa Calm     61% 0.00in /  0mm
00:49 42.5 °F /  5.8 °C 29.2 °F /  -1.6 °C 30.42in /  1030hPa Calm     59% 0.00in /  0mm
00:54 42.8 °F /  6 °C 29.5 °F /  -1.4 °C 30.42in /  1030hPa Calm     59% 0.00in /  0mm
00:59 42.9 °F /  6.1 °C 30.0 °F /  -1.1 °C 30.42in /  1030hPa Calm     60% 0.00in /  0mm
01:04 42.9 °F /  6.1 °C 30.0 °F /  -1.1 °C 30.42in /  1030hPa Calm     60% 0.00in /  0mm
01:09 42.7 °F /  5.9 °C 30.2 °F /  -1 °C 30.42in /  1030hPa Calm     61% 0.00in /  0mm
01:14 42.8 °F /  6 °C 30.7 °F /  -0.7 °C 30.41in /  1029.7hPa ENE 1.0mph /  1.6km/h 3.0mph /  4.8km/h 62% 0.00in /  0mm
01:19 42.8 °F /  6 °C 30.7 °F /  -0.7 °C 30.41in /  1029.7hPa ENE 1.0mph /  1.6km/h 3.0mph /  4.8km/h 62% 0.00in /  0mm
01:24 42.8 °F /  6 °C 30.3 °F /  -0.9 °C 30.41in /  1029.7hPa Calm   2.0mph /  3.2km/h 61% 0.00in /  0mm
01:29 42.7 °F /  5.9 °C 30.6 °F /  -0.8 °C 30.41in /  1029.7hPa Calm   2.0mph /  3.2km/h 62% 0.00in /  0mm
01:34 42.3 °F /  5.7 °C 30.6 °F /  -0.8 °C 30.41in /  1029.7hPa Calm     63% 0.00in /  0mm
01:39 42.2 °F /  5.7 °C 30.5 °F /  -0.8 °C 30.41in /  1029.7hPa Calm   1.0mph /  1.6km/h 63% 0.00in /  0mm
01:44 42.0 °F /  5.6 °C 30.3 °F /  -0.9 °C 30.41in /  1029.7hPa ENE 1.0mph /  1.6km/h 2.0mph /  3.2km/h 63% 0.00in /  0mm
01:49 41.6 °F /  5.3 °C 30.7 °F /  -0.7 °C 30.41in /  1029.7hPa Calm   1.0mph /  1.6km/h 65% 0.00in /  0mm
01:54 41.2 °F /  5.1 °C 30.3 °F /  -0.9 °C 30.41in /  1029.7hPa Calm   1.0mph /  1.6km/h 65% 0.00in /  0mm
01:59 41.1 °F /  5.1 °C 30.6 °F /  -0.8 °C 30.41in /  1029.7hPa Calm   1.0mph /  1.6km/h 66% 0.00in /  0mm
02:04 40.8 °F /  4.9 °C 30.7 °F /  -0.7 °C 30.41in /  1029.7hPa Calm     67% 0.00in /  0mm
02:09 40.6 °F /  4.8 °C 30.9 °F /  -0.6 °C 30.40in /  1029.3hPa ENE 3.0mph /  4.8km/h 3.0mph /  4.8km/h 68% 0.00in /  0mm
02:14 40.5 °F /  4.7 °C 30.8 °F /  -0.7 °C 30.40in /  1029.3hPa Calm   3.0mph /  4.8km/h 68% 0.00in /  0mm
02:19 40.6 °F /  4.8 °C 30.9 °F /  -0.6 °C 30.40in /  1029.3hPa Calm   1.0mph /  1.6km/h 68% 0.00in /  0mm
02:24 40.3 °F /  4.6 °C 30.9 °F /  -0.6 °C 30.40in /  1029.3hPa Calm     69% 0.00in /  0mm
02:29 40.4 °F /  4.7 °C 31.0 °F /  -0.6 °C 30.40in /  1029.3hPa Calm     69% 0.00in /  0mm
02:34 40.3 °F /  4.6 °C 30.9 °F /  -0.6 °C 30.40in /  1029.3hPa Calm     69% 0.00in /  0mm
02:39 40.0 °F /  4.4 °C 30.6 °F /  -0.8 °C 30.40in /  1029.3hPa Calm     69% 0.00in /  0mm
02:44 39.8 °F /  4.3 °C 30.8 °F /  -0.7 °C 30.40in /  1029.3hPa Calm     70% 0.00in /  0mm
02:49 39.5 °F /  4.2 °C 30.9 °F /  -0.6 °C 30.40in /  1029.3hPa Calm     71% 0.00in /  0mm
02:54 39.5 °F /  4.2 °C 31.2 °F /  -0.4 °C 30.40in /  1029.3hPa Calm     72% 0.00in /  0mm
02:59 39.5 °F /  4.2 °C 31.2 °F /  -0.4 °C 30.40in /  1029.3hPa Calm     72% 0.00in /  0mm
03:04 39.6 °F /  4.2 °C 31.3 °F /  -0.4 °C 30.40in /  1029.3hPa Calm     72% 0.00in /  0mm
03:09 39.6 °F /  4.2 °C 31.3 °F /  -0.4 °C 30.40in /  1029.3hPa Calm     72% 0.00in /  0mm
03:14 39.6 °F /  4.2 °C 31.3 °F /  -0.4 °C 30.40in /  1029.3hPa Calm     72% 0.00in /  0mm
03:19 39.6 °F /  4.2 °C 31.7 °F /  -0.2 °C 30.40in /  1029.3hPa Calm     73% 0.00in /  0mm
03:24 39.6 °F /  4.2 °C 31.3 °F /  -0.4 °C 30.40in /  1029.3hPa NE 1.0mph /  1.6km/h 2.0mph /  3.2km/h 72% 0.00in /  0mm
03:29 39.4 °F /  4.1 °C 31.1 °F /  -0.5 °C 30.39in /  1029hPa Calm   2.0mph /  3.2km/h 72% 0.00in /  0mm
03:34 39.2 °F /  4 °C 30.9 °F /  -0.6 °C 30.40in /  1029.3hPa Calm   2.0mph /  3.2km/h 72% 0.00in /  0mm
03:39 39.1 °F /  3.9 °C 30.8 °F /  -0.7 °C 30.40in /  1029.3hPa Calm   2.0mph /  3.2km/h 72% 0.00in /  0mm
03:44 38.7 °F /  3.7 °C 30.8 °F /  -0.7 °C 30.40in /  1029.3hPa Calm     73% 0.00in /  0mm
03:49 38.3 °F /  3.5 °C 30.4 °F /  -0.9 °C 30.40in /  1029.3hPa Calm     73% 0.00in /  0mm
03:54 38.2 °F /  3.4 °C 30.3 °F /  -0.9 °C 30.40in /  1029.3hPa Calm     73% 0.00in /  0mm
03:59 38.4 °F /  3.6 °C 30.8 °F /  -0.7 °C 30.40in /  1029.3hPa Calm     74% 0.00in /  0mm
04:04 38.3 °F /  3.5 °C 30.4 °F /  -0.9 °C 30.40in /  1029.3hPa Calm     73% 0.00in /  0mm
04:09 37.8 °F /  3.2 °C 30.3 °F /  -0.9 °C 30.40in /  1029.3hPa Calm     74% 0.00in /  0mm
04:14 37.7 °F /  3.2 °C 30.2 °F /  -1 °C 30.40in /  1029.3hPa Calm     74% 0.00in /  0mm
04:19 37.4 °F /  3 °C 29.9 °F /  -1.2 °C 30.40in /  1029.3hPa Calm     74% 0.00in /  0mm
04:24 37.1 °F /  2.8 °C 29.9 °F /  -1.2 °C 30.40in /  1029.3hPa Calm     75% 0.00in /  0mm
04:29 37.2 °F /  2.9 °C 30.0 °F /  -1.1 °C 30.40in /  1029.3hPa Calm     75% 0.00in /  0mm
04:34 37.1 °F /  2.8 °C 29.9 °F /  -1.2 °C 30.40in /  1029.3hPa Calm     75% 0.00in /  0mm
04:39 36.6 °F /  2.6 °C 29.4 °F /  -1.4 °C 30.40in /  1029.3hPa Calm     75% 0.00in /  0mm
04:44 36.2 °F /  2.3 °C 29.4 °F /  -1.4 °C 30.40in /  1029.3hPa Calm     76% 0.00in /  0mm
04:49 36.1 °F /  2.3 °C 29.6 °F /  -1.3 °C 30.40in /  1029.3hPa Calm     77% 0.00in /  0mm
04:54 36.1 °F /  2.3 °C 29.6 °F /  -1.3 °C 30.40in /  1029.3hPa Calm     77% 0.00in /  0mm
04:59 36.0 °F /  2.2 °C 29.5 °F /  -1.4 °C 30.40in /  1029.3hPa Calm     77% 0.00in /  0mm
05:04 35.9 °F /  2.2 °C 29.4 °F /  -1.4 °C 30.40in /  1029.3hPa Calm     77% 0.00in /  0mm
05:09 35.6 °F /  2 °C 29.1 °F /  -1.6 °C 30.40in /  1029.3hPa Calm     77% 0.00in /  0mm
05:14 35.5 °F /  1.9 °C 29.3 °F /  -1.5 °C 30.41in /  1029.7hPa Calm     78% 0.00in /  0mm
05:19 35.7 °F /  2.1 °C 29.5 °F /  -1.4 °C 30.40in /  1029.3hPa Calm     78% 0.00in /  0mm
05:29 35.7 °F /  2.1 °C 29.5 °F /  -1.4 °C 30.40in /  1029.3hPa Calm     78% 0.00in /  0mm
05:34 35.7 °F /  2.1 °C 29.8 °F /  -1.2 °C 30.40in /  1029.3hPa Calm     79% 0.00in /  0mm
05:39 36.4 °F /  2.4 °C 30.2 °F /  -1 °C 30.40in /  1029.3hPa Calm     78% 0.00in /  0mm
05:44 37.0 °F /  2.8 °C 30.5 °F /  -0.8 °C 30.40in /  1029.3hPa Calm     77% 0.00in /  0mm
05:49 37.7 °F /  3.2 °C 30.8 °F /  -0.7 °C 30.40in /  1029.3hPa Calm     76% 0.00in /  0mm
05:54 38.1 °F /  3.4 °C 30.9 °F /  -0.6 °C 30.41in /  1029.7hPa Calm     75% 0.00in /  0mm
05:59 38.5 °F /  3.6 °C 30.9 °F /  -0.6 °C 30.41in /  1029.7hPa Calm     74% 0.00in /  0mm
06:04 38.8 °F /  3.8 °C 30.9 °F /  -0.6 °C 30.41in /  1029.7hPa Calm     73% 0.00in /  0mm
06:09 39.1 °F /  3.9 °C 30.8 °F /  -0.7 °C 30.41in /  1029.7hPa East 2.0mph /  3.2km/h 3.0mph /  4.8km/h 72% 0.00in /  0mm
06:14 39.3 °F /  4.1 °C 31.0 °F /  -0.6 °C 30.41in /  1029.7hPa Calm   3.0mph /  4.8km/h 72% 0.00in /  0mm
06:19 39.3 °F /  4.1 °C 31.0 °F /  -0.6 °C 30.41in /  1029.7hPa Calm   2.0mph /  3.2km/h 72% 0.00in /  0mm
06:24 39.4 °F /  4.1 °C 30.8 °F /  -0.7 °C 30.41in /  1029.7hPa Calm   3.0mph /  4.8km/h 71% 0.00in /  0mm
06:29 39.4 °F /  4.1 °C 31.1 °F /  -0.5 °C 30.41in /  1029.7hPa East 1.0mph /  1.6km/h 3.0mph /  4.8km/h 72% 0.00in /  0mm
06:34 39.3 °F /  4.1 °C 31.0 °F /  -0.6 °C 30.41in /  1029.7hPa East 1.0mph /  1.6km/h 3.0mph /  4.8km/h 72% 0.00in /  0mm
06:39 39.2 °F /  4 °C 30.9 °F /  -0.6 °C 30.41in /  1029.7hPa East 1.0mph /  1.6km/h 3.0mph /  4.8km/h 72% 0.00in /  0mm
06:44 39.1 °F /  3.9 °C 31.2 °F /  -0.4 °C 30.41in /  1029.7hPa Calm   2.0mph /  3.2km/h 73% 0.00in /  0mm
06:49 39.2 °F /  4 °C 31.3 °F /  -0.4 °C 30.42in /  1030hPa Calm   3.0mph /  4.8km/h 73% 0.00in /  0mm
06:54 39.3 °F /  4.1 °C 31.4 °F /  -0.3 °C 30.42in /  1030hPa East 1.0mph /  1.6km/h 2.0mph /  3.2km/h 73% 0.00in /  0mm
06:59 39.4 °F /  4.1 °C 31.5 °F /  -0.3 °C 30.42in /  1030hPa Calm   2.0mph /  3.2km/h 73% 0.00in /  0mm
07:04 39.5 °F /  4.2 °C 31.6 °F /  -0.2 °C 30.42in /  1030hPa ESE 2.0mph /  3.2km/h 2.0mph /  3.2km/h 73% 0.00in /  0mm
07:09 39.7 °F /  4.3 °C 31.8 °F /  -0.1 °C 30.43in /  1030.4hPa Calm   2.0mph /  3.2km/h 73% 0.00in /  0mm
07:14 39.9 °F /  4.4 °C 31.6 °F /  -0.2 °C 30.43in /  1030.4hPa ESE 1.0mph /  1.6km/h 1.0mph /  1.6km/h 72% 0.00in /  0mm
07:19 40.1 °F /  4.5 °C 31.4 °F /  -0.3 °C 30.43in /  1030.4hPa ENE 2.0mph /  3.2km/h 3.0mph /  4.8km/h 71% 0.00in /  0mm
07:24 40.3 °F /  4.6 °C 31.6 °F /  -0.2 °C 30.43in /  1030.4hPa Calm   5.0mph /  8km/h 71% 0.00in /  0mm
07:29 40.4 °F /  4.7 °C 31.7 °F /  -0.2 °C 30.43in /  1030.4hPa East 1.0mph /  1.6km/h 5.0mph /  8km/h 71% 0.00in /  0mm
07:34 40.6 °F /  4.8 °C 31.6 °F /  -0.2 °C 30.43in /  1030.4hPa ESE 1.0mph /  1.6km/h 3.0mph /  4.8km/h 70% 0.00in /  0mm
07:39 40.7 °F /  4.8 °C 31.7 °F /  -0.2 °C 30.43in /  1030.4hPa ESE 1.0mph /  1.6km/h 3.0mph /  4.8km/h 70% 0.00in /  0mm
07:44 40.8 °F /  4.9 °C 31.4 °F /  -0.3 °C 30.43in /  1030.4hPa ESE 1.0mph /  1.6km/h 3.0mph /  4.8km/h 69% 0.00in /  0mm
07:49 41.0 °F /  5 °C 32.0 °F /  0 °C 30.43in /  1030.4hPa Calm   2.0mph /  3.2km/h 70% 0.00in /  0mm
07:54 41.2 °F /  5.1 °C 31.8 °F /  -0.1 °C 30.43in /  1030.4hPa ESE 1.0mph /  1.6km/h 3.0mph /  4.8km/h 69% 0.00in /  0mm
07:59 41.4 °F /  5.2 °C 32.0 °F /  0 °C 30.43in /  1030.4hPa ESE 1.0mph /  1.6km/h 3.0mph /  4.8km/h 69% 0.00in /  0mm
08:04 41.7 °F /  5.4 °C 32.3 °F /  0.2 °C 30.43in /  1030.4hPa ESE 1.0mph /  1.6km/h 3.0mph /  4.8km/h 69% 0.00in /  0mm
08:09 42.0 °F /  5.6 °C 32.2 °F /  0.1 °C 30.43in /  1030.4hPa SE 1.0mph /  1.6km/h 3.0mph /  4.8km/h 68% 0.00in /  0mm
08:14 42.2 °F /  5.7 °C 32.4 °F /  0.2 °C 30.43in /  1030.4hPa SE 2.0mph /  3.2km/h 3.0mph /  4.8km/h 68% 0.00in /  0mm
08:19 42.5 °F /  5.8 °C 32.3 °F /  0.2 °C 30.43in /  1030.4hPa SE 3.0mph /  4.8km/h 4.0mph /  6.4km/h 67% 0.00in /  0mm
08:24 42.9 °F /  6.1 °C 32.3 °F /  0.2 °C 30.43in /  1030.4hPa ESE 2.0mph /  3.2km/h 4.0mph /  6.4km/h 66% 0.00in /  0mm
08:29 43.3 °F /  6.3 °C 32.3 °F /  0.2 °C 30.43in /  1030.4hPa ESE 1.0mph /  1.6km/h 4.0mph /  6.4km/h 65% 0.00in /  0mm
08:34 43.8 °F /  6.6 °C 32.4 °F /  0.2 °C 30.43in /  1030.4hPa ESE 1.0mph /  1.6km/h 3.0mph /  4.8km/h 64% 0.00in /  0mm
08:39 44.5 °F /  6.9 °C 33.5 °F /  0.8 °C 30.43in /  1030.4hPa ESE 1.0mph /  1.6km/h 3.0mph /  4.8km/h 65% 0.00in /  0mm
08:44 45.0 °F /  7.2 °C 33.2 °F /  0.7 °C 30.43in /  1030.4hPa ESE 1.0mph /  1.6km/h 3.0mph /  4.8km/h 63% 0.00in /  0mm
08:49 45.3 °F /  7.4 °C 33.0 °F /  0.6 °C 30.43in /  1030.4hPa ESE 1.0mph /  1.6km/h 3.0mph /  4.8km/h 62% 0.00in /  0mm
08:54 46.5 °F /  8.1 °C 33.4 °F /  0.8 °C 30.43in /  1030.4hPa ESE 1.0mph /  1.6km/h 3.0mph /  4.8km/h 60% 0.00in /  0mm
08:59 47.6 °F /  8.7 °C 33.1 °F /  0.6 °C 30.43in /  1030.4hPa Calm   5.0mph /  8km/h 57% 0.00in /  0mm
09:04 49.1 °F /  9.5 °C 34.1 °F /  1.2 °C 30.43in /  1030.4hPa NE 3.0mph /  4.8km/h 3.0mph /  4.8km/h 56% 0.00in /  0mm
09:09 48.9 °F /  9.4 °C 32.0 °F /  0 °C 30.43in /  1030.4hPa SE 2.0mph /  3.2km/h 4.0mph /  6.4km/h 52% 0.00in /  0mm
09:14 49.1 °F /  9.5 °C 32.2 °F /  0.1 °C 30.43in /  1030.4hPa ESE 2.0mph /  3.2km/h 6.0mph /  9.7km/h 52% 0.00in /  0mm
09:19 50.4 °F /  10.2 °C 32.9 °F /  0.5 °C 30.43in /  1030.4hPa SE 1.0mph /  1.6km/h 5.0mph /  8km/h 51% 0.00in /  0mm
09:24 51.5 °F /  10.8 °C 33.0 °F /  0.6 °C 30.43in /  1030.4hPa East 1.0mph /  1.6km/h 5.0mph /  8km/h 49% 0.00in /  0mm
09:29 51.9 °F /  11.1 °C 32.3 °F /  0.2 °C 30.43in /  1030.4hPa ESE 2.0mph /  3.2km/h 5.0mph /  8km/h 47% 0.00in /  0mm
09:34 52.1 °F /  11.2 °C 31.4 °F /  -0.3 °C 30.43in /  1030.4hPa ESE 3.0mph /  4.8km/h 9.0mph /  14.5km/h 45% 0.00in /  0mm
09:39 52.4 °F /  11.3 °C 30.5 °F /  -0.8 °C 30.43in /  1030.4hPa ESE 4.0mph /  6.4km/h 9.0mph /  14.5km/h 43% 0.00in /  0mm
09:44 52.6 °F /  11.4 °C 31.8 °F /  -0.1 °C 30.43in /  1030.4hPa ENE 3.0mph /  4.8km/h 8.0mph /  12.9km/h 45% 0.00in /  0mm
09:49 53.3 °F /  11.8 °C 31.9 °F /  -0.1 °C 30.43in /  1030.4hPa Calm   6.0mph /  9.7km/h 44% 0.00in /  0mm
09:54 53.8 °F /  12.1 °C 30.0 °F /  -1.1 °C 30.43in /  1030.4hPa ENE 5.0mph /  8km/h 9.0mph /  14.5km/h 40% 0.00in /  0mm
09:59 53.6 °F /  12 °C 30.4 °F /  -0.9 °C 30.43in /  1030.4hPa ESE 3.0mph /  4.8km/h 9.0mph /  14.5km/h 41% 0.00in /  0mm
10:04 54.1 °F /  12.3 °C 29.7 °F /  -1.3 °C 30.43in /  1030.4hPa East 4.0mph /  6.4km/h 11.0mph /  17.7km/h 39% 0.00in /  0mm
10:09 54.6 °F /  12.6 °C 29.5 °F /  -1.4 °C 30.43in /  1030.4hPa ENE 4.0mph /  6.4km/h 11.0mph /  17.7km/h 38% 0.00in /  0mm
10:14 54.8 °F /  12.7 °C 28.3 °F /  -2.1 °C 30.43in /  1030.4hPa ENE 10.0mph /  16.1km/h 10.0mph /  16.1km/h 36% 0.00in /  0mm
10:19 55.0 °F /  12.8 °C 27.8 °F /  -2.3 °C 30.43in /  1030.4hPa ESE 9.0mph /  14.5km/h 10.0mph /  16.1km/h 35% 0.00in /  0mm
10:24 55.5 °F /  13.1 °C 29.0 °F /  -1.7 °C 30.43in /  1030.4hPa ENE 3.0mph /  4.8km/h 10.0mph /  16.1km/h 36% 0.00in /  0mm
10:29 55.6 °F /  13.1 °C 27.6 °F /  -2.4 °C 30.43in /  1030.4hPa East 5.0mph /  8km/h 13.0mph /  20.9km/h 34% 0.00in /  0mm
10:34 55.7 °F /  13.2 °C 29.1 °F /  -1.6 °C 30.42in /  1030hPa East 5.0mph /  8km/h 13.0mph /  20.9km/h 36% 0.00in /  0mm
10:39 55.8 °F /  13.2 °C 28.5 °F /  -1.9 °C 30.43in /  1030.4hPa East 6.0mph /  9.7km/h 9.0mph /  14.5km/h 35% 0.00in /  0mm
10:44 56.7 °F /  13.7 °C 30.7 °F /  -0.7 °C 30.42in /  1030hPa NE 6.0mph /  9.7km/h 8.0mph /  12.9km/h 37% 0.00in /  0mm
10:49 57.1 °F /  13.9 °C 29.7 °F /  -1.3 °C 30.43in /  1030.4hPa NE 8.0mph /  12.9km/h 9.0mph /  14.5km/h 35% 0.00in /  0mm
10:54 56.6 °F /  13.7 °C 29.9 °F /  -1.2 °C 30.43in /  1030.4hPa NE 6.0mph /  9.7km/h 9.0mph /  14.5km/h 36% 0.00in /  0mm
10:59 56.9 °F /  13.8 °C 29.5 °F /  -1.4 °C 30.42in /  1030hPa ENE 5.0mph /  8km/h 9.0mph /  14.5km/h 35% 0.00in /  0mm
11:04 57.0 °F /  13.9 °C 31.0 °F /  -0.6 °C 30.42in /  1030hPa ENE 4.0mph /  6.4km/h 9.0mph /  14.5km/h 37% 0.00in /  0mm
11:09 57.5 °F /  14.2 °C 30.7 °F /  -0.7 °C 30.42in /  1030hPa ENE 4.0mph /  6.4km/h 9.0mph /  14.5km/h 36% 0.00in /  0mm
11:14 58.1 °F /  14.5 °C 30.6 °F /  -0.8 °C 30.42in /  1030hPa ENE 4.0mph /  6.4km/h 9.0mph /  14.5km/h 35% 0.00in /  0mm
11:19 57.7 °F /  14.3 °C 29.5 °F /  -1.4 °C 30.42in /  1030hPa ENE 4.0mph /  6.4km/h 9.0mph /  14.5km/h 34% 0.00in /  0mm
11:24 58.3 °F /  14.6 °C 31.4 °F /  -0.3 °C 30.42in /  1030hPa NE 5.0mph /  8km/h 11.0mph /  17.7km/h 36% 0.00in /  0mm
11:29 58.3 °F /  14.6 °C 30.7 °F /  -0.7 °C 30.42in /  1030hPa Calm   9.0mph /  14.5km/h 35% 0.00in /  0mm
11:34 58.2 °F /  14.6 °C 29.2 °F /  -1.6 °C 30.42in /  1030hPa East 5.0mph /  8km/h 9.0mph /  14.5km/h 33% 0.00in /  0mm
11:39 58.4 °F /  14.7 °C 30.1 °F /  -1.1 °C 30.42in /  1030hPa NE 5.0mph /  8km/h 9.0mph /  14.5km/h 34% 0.00in /  0mm
11:44 58.7 °F /  14.8 °C 30.4 °F /  -0.9 °C 30.41in /  1029.7hPa SE 7.0mph /  11.3km/h 9.0mph /  14.5km/h 34% 0.00in /  0mm
11:49 59.6 °F /  15.3 °C 31.9 °F /  -0.1 °C 30.41in /  1029.7hPa ESE 3.0mph /  4.8km/h 8.0mph /  12.9km/h 35% 0.00in /  0mm
11:54 60.2 °F /  15.7 °C 30.2 °F /  -1 °C 30.41in /  1029.7hPa ENE 4.0mph /  6.4km/h 10.0mph /  16.1km/h 32% 0.00in /  0mm
11:59 60.3 °F /  15.7 °C 30.3 °F /  -0.9 °C 30.41in /  1029.7hPa East 4.0mph /  6.4km/h 10.0mph /  16.1km/h 32% 0.00in /  0mm
12:04 60.3 °F /  15.7 °C 28.7 °F /  -1.8 °C 30.41in /  1029.7hPa ENE 5.0mph /  8km/h 12.0mph /  19.3km/h 30% 0.00in /  0mm
12:09 60.8 °F /  16 °C 29.9 °F /  -1.2 °C 30.41in /  1029.7hPa ENE 4.0mph /  6.4km/h 12.0mph /  19.3km/h 31% 0.00in /  0mm
12:14 60.6 °F /  15.9 °C 28.1 °F /  -2.2 °C 30.40in /  1029.3hPa East 4.0mph /  6.4km/h 9.0mph /  14.5km/h 29% 0.00in /  0mm
12:19 60.5 °F /  15.8 °C 27.2 °F /  -2.7 °C 30.40in /  1029.3hPa NE 8.0mph /  12.9km/h 10.0mph /  16.1km/h 28% 0.00in /  0mm
12:24 60.5 °F /  15.8 °C 28.9 °F /  -1.7 °C 30.40in /  1029.3hPa NE 10.0mph /  16.1km/h 10.0mph /  16.1km/h 30% 0.00in /  0mm
12:29 60.9 °F /  16.1 °C 26.7 °F /  -2.9 °C 30.40in /  1029.3hPa NE 4.0mph /  6.4km/h 10.0mph /  16.1km/h 27% 0.00in /  0mm
12:34 61.3 °F /  16.3 °C 27.9 °F /  -2.3 °C 30.40in /  1029.3hPa ENE 5.0mph /  8km/h 10.0mph /  16.1km/h 28% 0.00in /  0mm
12:39 61.3 °F /  16.3 °C 28.7 °F /  -1.8 °C 30.40in /  1029.3hPa ENE 4.0mph /  6.4km/h 10.0mph /  16.1km/h 29% 0.00in /  0mm
12:44 61.4 °F /  16.3 °C 27.1 °F /  -2.7 °C 30.39in /  1029hPa NNE 5.0mph /  8km/h 10.0mph /  16.1km/h 27% 0.00in /  0mm
12:49 61.8 °F /  16.6 °C 29.2 °F /  -1.6 °C 30.39in /  1029hPa ENE 8.0mph /  12.9km/h 11.0mph /  17.7km/h 29% 0.00in /  0mm
12:54 61.8 °F /  16.6 °C 27.4 °F /  -2.6 °C 30.39in /  1029hPa NE 6.0mph /  9.7km/h 12.0mph /  19.3km/h 27% 0.00in /  0mm
12:59 61.7 °F /  16.5 °C 26.4 °F /  -3.1 °C 30.39in /  1029hPa NNE 4.0mph /  6.4km/h 12.0mph /  19.3km/h 26% 0.00in /  0mm
13:04 61.9 °F /  16.6 °C 27.5 °F /  -2.5 °C 30.39in /  1029hPa NE 5.0mph /  8km/h 9.0mph /  14.5km/h 27% 0.00in /  0mm
13:09 62.1 °F /  16.7 °C 28.6 °F /  -1.9 °C 30.39in /  1029hPa East 9.0mph /  14.5km/h 13.0mph /  20.9km/h 28% 0.00in /  0mm
13:14 62.2 °F /  16.8 °C 27.8 °F /  -2.3 °C 30.38in /  1028.7hPa East 2.0mph /  3.2km/h 10.0mph /  16.1km/h 27% 0.00in /  0mm
13:19 62.6 °F /  17 °C 30.7 °F /  -0.7 °C 30.38in /  1028.7hPa NE 4.0mph /  6.4km/h 9.0mph /  14.5km/h 30% 0.00in /  0mm
13:24 62.7 °F /  17.1 °C 27.3 °F /  -2.6 °C 30.38in /  1028.7hPa East 4.0mph /  6.4km/h 9.0mph /  14.5km/h 26% 0.00in /  0mm
13:29 63.0 °F /  17.2 °C 29.4 °F /  -1.4 °C 30.38in /  1028.7hPa ENE 4.0mph /  6.4km/h 11.0mph /  17.7km/h 28% 0.00in /  0mm
13:34 63.1 °F /  17.3 °C 27.6 °F /  -2.4 °C 30.38in /  1028.7hPa NE 5.0mph /  8km/h 11.0mph /  17.7km/h 26% 0.00in /  0mm
13:39 62.9 °F /  17.2 °C 31.8 °F /  -0.1 °C 30.38in /  1028.7hPa ENE 5.0mph /  8km/h 11.0mph /  17.7km/h 31% 0.00in /  0mm
13:44 63.1 °F /  17.3 °C 27.6 °F /  -2.4 °C 30.38in /  1028.7hPa ESE 8.0mph /  12.9km/h 11.0mph /  17.7km/h 26% 0.00in /  0mm
13:49 63.3 °F /  17.4 °C 32.1 °F /  0.1 °C 30.38in /  1028.7hPa ENE 5.0mph /  8km/h 11.0mph /  17.7km/h 31% 0.00in /  0mm
13:54 63.4 °F /  17.4 °C 30.6 °F /  -0.8 °C 30.38in /  1028.7hPa NE 8.0mph /  12.9km/h 10.0mph /  16.1km/h 29% 0.00in /  0mm
13:59 62.9 °F /  17.2 °C 26.5 °F /  -3.1 °C 30.38in /  1028.7hPa East 7.0mph /  11.3km/h 14.0mph /  22.5km/h 25% 0.00in /  0mm
14:04 62.2 °F /  16.8 °C 26.9 °F /  -2.8 °C 30.37in /  1028.3hPa NE 7.0mph /  11.3km/h 12.0mph /  19.3km/h 26% 0.00in /  0mm
14:09 62.4 °F /  16.9 °C 27.9 °F /  -2.3 °C 30.37in /  1028.3hPa North 4.0mph /  6.4km/h 10.0mph /  16.1km/h 27% 0.00in /  0mm
14:14 62.7 °F /  17.1 °C 28.2 °F /  -2.1 °C 30.37in /  1028.3hPa ENE 3.0mph /  4.8km/h 12.0mph /  19.3km/h 27% 0.00in /  0mm
14:19 62.7 °F /  17.1 °C 28.2 °F /  -2.1 °C 30.37in /  1028.3hPa South 3.0mph /  4.8km/h 14.0mph /  22.5km/h 27% 0.00in /  0mm
14:24 62.8 °F /  17.1 °C 28.3 °F /  -2.1 °C 30.36in /  1028hPa East 4.0mph /  6.4km/h 14.0mph /  22.5km/h 27% 0.00in /  0mm
14:29 63.2 °F /  17.3 °C 27.7 °F /  -2.4 °C 30.36in /  1028hPa ENE 5.0mph /  8km/h 13.0mph /  20.9km/h 26% 0.00in /  0mm
14:34 63.2 °F /  17.3 °C 27.7 °F /  -2.4 °C 30.36in /  1028hPa NE 5.0mph /  8km/h 13.0mph /  20.9km/h 26% 0.00in /  0mm
14:39 62.9 °F /  17.2 °C 26.5 °F /  -3.1 °C 30.36in /  1028hPa NE 5.0mph /  8km/h 15.0mph /  24.1km/h 25% 0.00in /  0mm
14:44 62.5 °F /  16.9 °C 28.0 °F /  -2.2 °C 30.36in /  1028hPa NE 5.0mph /  8km/h 15.0mph /  24.1km/h 27% 0.00in /  0mm
14:49 63.1 °F /  17.3 °C 28.5 °F /  -1.9 °C 30.36in /  1028hPa East 5.0mph /  8km/h 9.0mph /  14.5km/h 27% 0.00in /  0mm
14:54 63.2 °F /  17.3 °C 30.4 °F /  -0.9 °C 30.35in /  1027.7hPa ENE 1.0mph /  1.6km/h 11.0mph /  17.7km/h 29% 0.00in /  0mm
14:59 63.0 °F /  17.2 °C 29.4 °F /  -1.4 °C 30.35in /  1027.7hPa NE 4.0mph /  6.4km/h 11.0mph /  17.7km/h 28% 0.00in /  0mm
15:04 63.9 °F /  17.7 °C 31.8 °F /  -0.1 °C 30.35in /  1027.7hPa NE 5.0mph /  8km/h 10.0mph /  16.1km/h 30% 0.00in /  0mm
15:09 63.4 °F /  17.4 °C 26.9 °F /  -2.8 °C 30.35in /  1027.7hPa ENE 2.0mph /  3.2km/h 9.0mph /  14.5km/h 25% 0.00in /  0mm
15:14 63.9 °F /  17.7 °C 28.3 °F /  -2.1 °C 30.34in /  1027.3hPa SSE 3.0mph /  4.8km/h 10.0mph /  16.1km/h 26% 0.00in /  0mm
15:19 64.0 °F /  17.8 °C 29.3 °F /  -1.5 °C 30.34in /  1027.3hPa NE 3.0mph /  4.8km/h 9.0mph /  14.5km/h 27% 0.00in /  0mm
15:24 64.0 °F /  17.8 °C 26.4 °F /  -3.1 °C 30.34in /  1027.3hPa Calm   6.0mph /  9.7km/h 24% 0.00in /  0mm
15:29 63.8 °F /  17.7 °C 28.2 °F /  -2.1 °C 30.33in /  1027hPa ENE 3.0mph /  4.8km/h 9.0mph /  14.5km/h 26% 0.00in /  0mm
15:34 64.1 °F /  17.8 °C 29.4 °F /  -1.4 °C 30.33in /  1027hPa ENE 4.0mph /  6.4km/h 11.0mph /  17.7km/h 27% 0.00in /  0mm
15:39 64.0 °F /  17.8 °C 26.4 °F /  -3.1 °C 30.33in /  1027hPa ENE 5.0mph /  8km/h 11.0mph /  17.7km/h 24% 0.00in /  0mm
15:44 63.9 °F /  17.7 °C 29.2 °F /  -1.6 °C 30.33in /  1027hPa NE 4.0mph /  6.4km/h 11.0mph /  17.7km/h 27% 0.00in /  0mm
15:49 63.8 °F /  17.7 °C 28.2 °F /  -2.1 °C 30.33in /  1027hPa NE 5.0mph /  8km/h 13.0mph /  20.9km/h 26% 0.00in /  0mm
15:54 64.0 °F /  17.8 °C 28.4 °F /  -2 °C 30.33in /  1027hPa NE 6.0mph /  9.7km/h 9.0mph /  14.5km/h 26% 0.00in /  0mm
15:59 64.0 °F /  17.8 °C 28.4 °F /  -2 °C 30.32in /  1026.6hPa NE 5.0mph /  8km/h 12.0mph /  19.3km/h 26% 0.00in /  0mm
16:04 63.7 °F /  17.6 °C 29.1 °F /  -1.6 °C 30.32in /  1026.6hPa NE 5.0mph /  8km/h 12.0mph /  19.3km/h 27% 0.00in /  0mm
16:09 64.3 °F /  17.9 °C 31.3 °F /  -0.4 °C 30.32in /  1026.6hPa NE 6.0mph /  9.7km/h 10.0mph /  16.1km/h 29% 0.00in /  0mm
16:14 64.7 °F /  18.2 °C 30.8 °F /  -0.7 °C 30.32in /  1026.6hPa East 3.0mph /  4.8km/h 8.0mph /  12.9km/h 28% 0.00in /  0mm
16:19 65.2 °F /  18.4 °C 29.4 °F /  -1.4 °C 30.32in /  1026.6hPa ENE 2.0mph /  3.2km/h 9.0mph /  14.5km/h 26% 0.00in /  0mm
16:24 65.4 °F /  18.6 °C 29.6 °F /  -1.3 °C 30.32in /  1026.6hPa East 1.0mph /  1.6km/h 8.0mph /  12.9km/h 26% 0.00in /  0mm
16:29 65.5 °F /  18.6 °C 29.7 °F /  -1.3 °C 30.31in /  1026.3hPa East 3.0mph /  4.8km/h 10.0mph /  16.1km/h 26% 0.00in /  0mm
16:34 65.5 °F /  18.6 °C 29.7 °F /  -1.3 °C 30.31in /  1026.3hPa East 3.0mph /  4.8km/h 10.0mph /  16.1km/h 26% 0.00in /  0mm
16:39 65.6 °F /  18.7 °C 28.8 °F /  -1.8 °C 30.31in /  1026.3hPa North 4.0mph /  6.4km/h 8.0mph /  12.9km/h 25% 0.00in /  0mm
16:44 65.6 °F /  18.7 °C 30.7 °F /  -0.7 °C 30.31in /  1026.3hPa East 5.0mph /  8km/h 8.0mph /  12.9km/h 27% 0.00in /  0mm
16:49 65.5 °F /  18.6 °C 30.6 °F /  -0.8 °C 30.31in /  1026.3hPa ESE 5.0mph /  8km/h 7.0mph /  11.3km/h 27% 0.00in /  0mm
16:54 65.5 °F /  18.6 °C 31.5 °F /  -0.3 °C 30.31in /  1026.3hPa ENE 4.0mph /  6.4km/h 8.0mph /  12.9km/h 28% 0.00in /  0mm
16:59 65.4 °F /  18.6 °C 29.6 °F /  -1.3 °C 30.31in /  1026.3hPa ENE 4.0mph /  6.4km/h 10.0mph /  16.1km/h 26% 0.00in /  0mm
17:04 65.2 °F /  18.4 °C 29.4 °F /  -1.4 °C 30.31in /  1026.3hPa ENE 5.0mph /  8km/h 10.0mph /  16.1km/h 26% 0.00in /  0mm
17:09 65.2 °F /  18.4 °C 28.5 °F /  -1.9 °C 30.31in /  1026.3hPa ENE 4.0mph /  6.4km/h 9.0mph /  14.5km/h 25% 0.00in /  0mm
17:14 65.1 °F /  18.4 °C 29.3 °F /  -1.5 °C 30.31in /  1026.3hPa ENE 4.0mph /  6.4km/h 8.0mph /  12.9km/h 26% 0.00in /  0mm
17:19 65.2 °F /  18.4 °C 29.4 °F /  -1.4 °C 30.31in /  1026.3hPa East 5.0mph /  8km/h 10.0mph /  16.1km/h 26% 0.00in /  0mm
17:24 65.0 °F /  18.3 °C 29.2 °F /  -1.6 °C 30.31in /  1026.3hPa ENE 3.0mph /  4.8km/h 10.0mph /  16.1km/h 26% 0.00in /  0mm
17:29 65.0 °F /  18.3 °C 28.3 °F /  -2.1 °C 30.31in /  1026.3hPa NE 9.0mph /  14.5km/h 10.0mph /  16.1km/h 25% 0.00in /  0mm
17:34 64.8 °F /  18.2 °C 29.1 °F /  -1.6 °C 30.31in /  1026.3hPa ENE 4.0mph /  6.4km/h 10.0mph /  16.1km/h 26% 0.00in /  0mm
17:39 64.7 °F /  18.2 °C 29.0 °F /  -1.7 °C 30.31in /  1026.3hPa ENE 3.0mph /  4.8km/h 10.0mph /  16.1km/h 26% 0.00in /  0mm
17:44 64.7 °F /  18.2 °C 28.0 °F /  -2.2 °C 30.31in /  1026.3hPa East 6.0mph /  9.7km/h 9.0mph /  14.5km/h 25% 0.00in /  0mm
17:49 64.5 °F /  18.1 °C 28.8 °F /  -1.8 °C 30.30in /  1026hPa ENE 8.0mph /  12.9km/h 14.0mph /  22.5km/h 26% 0.00in /  0mm
17:54 64.4 °F /  18 °C 29.7 °F /  -1.3 °C 30.30in /  1026hPa ENE 5.0mph /  8km/h 14.0mph /  22.5km/h 27% 0.00in /  0mm
17:59 64.3 °F /  17.9 °C 28.7 °F /  -1.8 °C 30.30in /  1026hPa ENE 5.0mph /  8km/h 10.0mph /  16.1km/h 26% 0.00in /  0mm
18:04 64.2 °F /  17.9 °C 29.5 °F /  -1.4 °C 30.30in /  1026hPa NE 4.0mph /  6.4km/h 10.0mph /  16.1km/h 27% 0.00in /  0mm
18:09 63.9 °F /  17.7 °C 27.4 °F /  -2.6 °C 30.30in /  1026hPa NE 2.0mph /  3.2km/h 12.0mph /  19.3km/h 25% 0.00in /  0mm
18:14 63.7 °F /  17.6 °C 29.1 °F /  -1.6 °C 30.30in /  1026hPa NE 4.0mph /  6.4km/h 10.0mph /  16.1km/h 27% 0.00in /  0mm
18:19 63.5 °F /  17.5 °C 29.8 °F /  -1.2 °C 30.30in /  1026hPa ENE 2.0mph /  3.2km/h 8.0mph /  12.9km/h 28% 0.00in /  0mm
18:24 63.4 °F /  17.4 °C 28.8 °F /  -1.8 °C 30.30in /  1026hPa ENE 4.0mph /  6.4km/h 10.0mph /  16.1km/h 27% 0.00in /  0mm
18:29 63.2 °F /  17.3 °C 27.7 °F /  -2.4 °C 30.30in /  1026hPa ENE 5.0mph /  8km/h 10.0mph /  16.1km/h 26% 0.00in /  0mm
18:34 63.0 °F /  17.2 °C 28.5 °F /  -1.9 °C 30.30in /  1026hPa NE 6.0mph /  9.7km/h 11.0mph /  17.7km/h 27% 0.00in /  0mm
18:39 62.6 °F /  17 °C 32.3 °F /  0.2 °C 30.30in /  1026hPa NE 5.0mph /  8km/h 11.0mph /  17.7km/h 32% 0.00in /  0mm
18:44 62.2 °F /  16.8 °C 32.7 °F /  0.4 °C 30.30in /  1026hPa NE 7.0mph /  11.3km/h 8.0mph /  12.9km/h 33% 0.00in /  0mm
18:49 61.6 °F /  16.4 °C 32.2 °F /  0.1 °C 30.30in /  1026hPa NE 9.0mph /  14.5km/h 10.0mph /  16.1km/h 33% 0.00in /  0mm
18:54 61.1 °F /  16.2 °C 32.5 °F /  0.3 °C 30.30in /  1026hPa NE 5.0mph /  8km/h 10.0mph /  16.1km/h 34% 0.00in /  0mm
18:59 60.6 °F /  15.9 °C 32.8 °F /  0.4 °C 30.30in /  1026hPa NNE 6.0mph /  9.7km/h 12.0mph /  19.3km/h 35% 0.00in /  0mm
19:04 60.2 °F /  15.7 °C 32.4 °F /  0.2 °C 30.30in /  1026hPa NNE 6.0mph /  9.7km/h 9.0mph /  14.5km/h 35% 0.00in /  0mm
19:09 59.7 °F /  15.4 °C 32.7 °F /  0.4 °C 30.30in /  1026hPa NE 5.0mph /  8km/h 9.0mph /  14.5km/h 36% 0.00in /  0mm
19:14 59.4 °F /  15.2 °C 33.1 °F /  0.6 °C 30.30in /  1026hPa NE 13.0mph /  20.9km/h 13.0mph /  20.9km/h 37% 0.00in /  0mm
19:19 59.2 °F /  15.1 °C 32.9 °F /  0.5 °C 30.30in /  1026hPa NNE 5.0mph /  8km/h 12.0mph /  19.3km/h 37% 0.00in /  0mm
19:24 58.8 °F /  14.9 °C 33.2 °F /  0.7 °C 30.30in /  1026hPa NE 6.0mph /  9.7km/h 13.0mph /  20.9km/h 38% 0.00in /  0mm
19:29 58.6 °F /  14.8 °C 33.0 °F /  0.6 °C 30.30in /  1026hPa NE 6.0mph /  9.7km/h 13.0mph /  20.9km/h 38% 0.00in /  0mm
19:34 58.3 °F /  14.6 °C 33.4 °F /  0.8 °C 30.30in /  1026hPa NE 6.0mph /  9.7km/h 11.0mph /  17.7km/h 39% 0.00in /  0mm
19:39 58.1 °F /  14.5 °C 32.6 °F /  0.3 °C 30.30in /  1026hPa NE 5.0mph /  8km/h 12.0mph /  19.3km/h 38% 0.00in /  0mm
19:44 57.8 °F /  14.3 °C 33.0 °F /  0.6 °C 30.30in /  1026hPa NE 5.0mph /  8km/h 12.0mph /  19.3km/h 39% 0.00in /  0mm
19:49 57.6 °F /  14.2 °C 32.8 °F /  0.4 °C 30.30in /  1026hPa NNE 6.0mph /  9.7km/h 12.0mph /  19.3km/h 39% 0.00in /  0mm
19:54 57.4 °F /  14.1 °C 32.6 °F /  0.3 °C 30.30in /  1026hPa NE 7.0mph /  11.3km/h 13.0mph /  20.9km/h 39% 0.00in /  0mm
19:59 57.2 °F /  14 °C 32.4 °F /  0.2 °C 30.30in /  1026hPa ENE 5.0mph /  8km/h 14.0mph /  22.5km/h 39% 0.00in /  0mm
20:04 56.9 °F /  13.8 °C 32.2 °F /  0.1 °C 30.29in /  1025.6hPa ENE 9.0mph /  14.5km/h 11.0mph /  17.7km/h 39% 0.00in /  0mm
20:09 56.7 °F /  13.7 °C 32.0 °F /  0 °C 30.30in /  1026hPa NE 8.0mph /  12.9km/h 10.0mph /  16.1km/h 39% 0.00in /  0mm
20:14 56.4 °F /  13.6 °C 32.4 °F /  0.2 °C 30.30in /  1026hPa NE 5.0mph /  8km/h 12.0mph /  19.3km/h 40% 0.00in /  0mm
20:19 56.2 °F /  13.4 °C 32.2 °F /  0.1 °C 30.30in /  1026hPa ENE 8.0mph /  12.9km/h 10.0mph /  16.1km/h 40% 0.00in /  0mm
20:24 55.9 °F /  13.3 °C 31.9 °F /  -0.1 °C 30.30in /  1026hPa NE 6.0mph /  9.7km/h 10.0mph /  16.1km/h 40% 0.00in /  0mm
20:29 55.7 °F /  13.2 °C 32.3 °F /  0.2 °C 30.30in /  1026hPa NE 6.0mph /  9.7km/h 10.0mph /  16.1km/h 41% 0.00in /  0mm
20:34 55.3 °F /  12.9 °C 32.0 °F /  0 °C 30.30in /  1026hPa NE 6.0mph /  9.7km/h 10.0mph /  16.1km/h 41% 0.00in /  0mm
20:39 55.1 °F /  12.8 °C 31.8 °F /  -0.1 °C 30.30in /  1026hPa NE 6.0mph /  9.7km/h 10.0mph /  16.1km/h 41% 0.00in /  0mm
20:44 54.9 °F /  12.7 °C 32.2 °F /  0.1 °C 30.30in /  1026hPa NE 5.0mph /  8km/h 10.0mph /  16.1km/h 42% 0.00in /  0mm
20:49 54.7 °F /  12.6 °C 31.4 °F /  -0.3 °C 30.30in /  1026hPa NE 6.0mph /  9.7km/h 12.0mph /  19.3km/h 41% 0.00in /  0mm
20:54 54.4 °F /  12.4 °C 31.8 °F /  -0.1 °C 30.30in /  1026hPa NE 5.0mph /  8km/h 12.0mph /  19.3km/h 42% 0.00in /  0mm
20:59 54.2 °F /  12.3 °C 31.6 °F /  -0.2 °C 30.30in /  1026hPa NE 2.0mph /  3.2km/h 9.0mph /  14.5km/h 42% 0.00in /  0mm
21:04 54.0 °F /  12.2 °C 32.0 °F /  0 °C 30.30in /  1026hPa NE 4.0mph /  6.4km/h 9.0mph /  14.5km/h 43% 0.00in /  0mm
21:09 53.8 °F /  12.1 °C 31.2 °F /  -0.4 °C 30.30in /  1026hPa NE 3.0mph /  4.8km/h 8.0mph /  12.9km/h 42% 0.00in /  0mm
21:14 53.5 °F /  11.9 °C 31.0 °F /  -0.6 °C 30.30in /  1026hPa NE 5.0mph /  8km/h 8.0mph /  12.9km/h 42% 0.00in /  0mm
21:19 53.4 °F /  11.9 °C 30.3 °F /  -0.9 °C 30.30in /  1026hPa NE 6.0mph /  9.7km/h 9.0mph /  14.5km/h 41% 0.00in /  0mm
21:24 53.1 °F /  11.7 °C 30.0 °F /  -1.1 °C 30.30in /  1026hPa ENE 4.0mph /  6.4km/h 9.0mph /  14.5km/h 41% 0.00in /  0mm
21:29 53.0 °F /  11.7 °C 29.9 °F /  -1.2 °C 30.30in /  1026hPa ENE 4.0mph /  6.4km/h 9.0mph /  14.5km/h 41% 0.00in /  0mm
21:34 52.8 °F /  11.6 °C 29.7 °F /  -1.3 °C 30.30in /  1026hPa ENE 4.0mph /  6.4km/h 9.0mph /  14.5km/h 41% 0.00in /  0mm
21:39 52.5 °F /  11.4 °C 29.5 °F /  -1.4 °C 30.30in /  1026hPa ENE 4.0mph /  6.4km/h 9.0mph /  14.5km/h 41% 0.00in /  0mm
21:44 52.4 °F /  11.3 °C 29.4 °F /  -1.4 °C 30.30in /  1026hPa ENE 4.0mph /  6.4km/h 9.0mph /  14.5km/h 41% 0.00in /  0mm
21:49 52.2 °F /  11.2 °C 29.8 °F /  -1.2 °C 30.30in /  1026hPa East 2.0mph /  3.2km/h 7.0mph /  11.3km/h 42% 0.00in /  0mm
21:54 51.9 °F /  11.1 °C 29.5 °F /  -1.4 °C 30.30in /  1026hPa NE 3.0mph /  4.8km/h 9.0mph /  14.5km/h 42% 0.00in /  0mm
21:59 51.6 °F /  10.9 °C 28.6 °F /  -1.9 °C 30.30in /  1026hPa ENE 2.0mph /  3.2km/h 8.0mph /  12.9km/h 41% 0.00in /  0mm
22:04 51.5 °F /  10.8 °C 29.1 °F /  -1.6 °C 30.30in /  1026hPa NE 3.0mph /  4.8km/h 8.0mph /  12.9km/h 42% 0.00in /  0mm
22:09 51.3 °F /  10.7 °C 29.0 °F /  -1.7 °C 30.30in /  1026hPa NE 3.0mph /  4.8km/h 8.0mph /  12.9km/h 42% 0.00in /  0mm
22:14 51.1 °F /  10.6 °C 28.2 °F /  -2.1 °C 30.30in /  1026hPa East 5.0mph /  8km/h 8.0mph /  12.9km/h 41% 0.00in /  0mm
22:19 50.9 °F /  10.5 °C 28.6 °F /  -1.9 °C 30.30in /  1026hPa ENE 7.0mph /  11.3km/h 9.0mph /  14.5km/h 42% 0.00in /  0mm
22:24 50.8 °F /  10.4 °C 27.9 °F /  -2.3 °C 30.30in /  1026hPa ENE 4.0mph /  6.4km/h 9.0mph /  14.5km/h 41% 0.00in /  0mm
22:29 50.7 °F /  10.4 °C 28.4 °F /  -2 °C 30.30in /  1026hPa ENE 4.0mph /  6.4km/h 9.0mph /  14.5km/h 42% 0.00in /  0mm
22:34 50.5 °F /  10.3 °C 28.2 °F /  -2.1 °C 30.30in /  1026hPa ENE 3.0mph /  4.8km/h 9.0mph /  14.5km/h 42% 0.00in /  0mm
22:39 50.3 °F /  10.2 °C 28.1 °F /  -2.2 °C 30.30in /  1026hPa ENE 3.0mph /  4.8km/h 8.0mph /  12.9km/h 42% 0.00in /  0mm
22:44 50.1 °F /  10.1 °C 27.9 °F /  -2.3 °C 30.30in /  1026hPa ENE 5.0mph /  8km/h 9.0mph /  14.5km/h 42% 0.00in /  0mm
22:49 50.0 °F /  10 °C 27.8 °F /  -2.3 °C 30.30in /  1026hPa ENE 3.0mph /  4.8km/h 9.0mph /  14.5km/h 42% 0.00in /  0mm
22:54 49.9 °F /  9.9 °C 28.3 °F /  -2.1 °C 30.30in /  1026hPa ENE 4.0mph /  6.4km/h 9.0mph /  14.5km/h 43% 0.00in /  0mm
22:59 49.7 °F /  9.8 °C 28.1 °F /  -2.2 °C 30.29in /  1025.6hPa ENE 3.0mph /  4.8km/h 9.0mph /  14.5km/h 43% 0.00in /  0mm
23:04 49.6 °F /  9.8 °C 28.6 °F /  -1.9 °C 30.29in /  1025.6hPa ENE 3.0mph /  4.8km/h 8.0mph /  12.9km/h 44% 0.00in /  0mm
23:09 49.4 °F /  9.7 °C 28.4 °F /  -2 °C 30.29in /  1025.6hPa ENE 3.0mph /  4.8km/h 6.0mph /  9.7km/h 44% 0.00in /  0mm
23:14 49.2 °F /  9.6 °C 28.2 °F /  -2.1 °C 30.29in /  1025.6hPa NE 2.0mph /  3.2km/h 8.0mph /  12.9km/h 44% 0.00in /  0mm
23:19 49.1 °F /  9.5 °C 28.7 °F /  -1.8 °C 30.29in /  1025.6hPa ENE 3.0mph /  4.8km/h 8.0mph /  12.9km/h 45% 0.00in /  0mm
23:24 49.1 °F /  9.5 °C 28.7 °F /  -1.8 °C 30.29in /  1025.6hPa ENE 3.0mph /  4.8km/h 7.0mph /  11.3km/h 45% 0.00in /  0mm
23:29 49.0 °F /  9.4 °C 28.6 °F /  -1.9 °C 30.28in /  1025.3hPa NE 2.0mph /  3.2km/h 4.0mph /  6.4km/h 45% 0.00in /  0mm
23:34 48.8 °F /  9.3 °C 28.4 °F /  -2 °C 30.28in /  1025.3hPa East 5.0mph /  8km/h 6.0mph /  9.7km/h 45% 0.00in /  0mm
23:39 48.7 °F /  9.3 °C 28.3 °F /  -2.1 °C 30.28in /  1025.3hPa East 5.0mph /  8km/h 5.0mph /  8km/h 45% 0.00in /  0mm
23:44 48.5 °F /  9.2 °C 28.6 °F /  -1.9 °C 30.28in /  1025.3hPa ENE 2.0mph /  3.2km/h 7.0mph /  11.3km/h 46% 0.00in /  0mm
23:49 48.5 °F /  9.2 °C 28.6 °F /  -1.9 °C 30.28in /  1025.3hPa ENE 3.0mph /  4.8km/h 7.0mph /  11.3km/h 46% 0.00in /  0mm
23:54 48.3 °F /  9.1 °C 28.5 °F /  -1.9 °C 30.28in /  1025.3hPa ENE 3.0mph /  4.8km/h 7.0mph /  11.3km/h 46% 0.00in /  0mm
23:59 48.2 °F /  9 °C 28.9 °F /  -1.7 °C 30.28in /  1025.3hPa ENE 2.0mph /  3.2km/h 7.0mph /  11.3km/h 47% 0.00in /  0mm
Buffalo, New York, USA
Compliments of Weather Underground - 2.5 mb